sensor_id;sensor_type;location;lat;lon;timestamp;P1;durP1;ratioP1;P2;durP2;ratioP2
31770;SDS011;18343;50.152;8.182;2023-03-04T00:00:25;105.55;;;38.22;;
31770;SDS011;18343;50.152;8.182;2023-03-04T00:03:09;102.45;;;37.60;;
31770;SDS011;18343;50.152;8.182;2023-03-04T00:05:54;99.68;;;34.03;;
31770;SDS011;18343;50.152;8.182;2023-03-04T00:08:39;103.57;;;34.58;;
31770;SDS011;18343;50.152;8.182;2023-03-04T00:11:24;108.32;;;35.35;;
31770;SDS011;18343;50.152;8.182;2023-03-04T00:14:08;97.45;;;33.95;;
31770;SDS011;18343;50.152;8.182;2023-03-04T00:16:55;94.75;;;34.88;;
31770;SDS011;18343;50.152;8.182;2023-03-04T00:19:39;95.28;;;33.53;;
31770;SDS011;18343;50.152;8.182;2023-03-04T00:22:24;101.35;;;34.65;;
31770;SDS011;18343;50.152;8.182;2023-03-04T00:25:08;107.78;;;34.83;;
31770;SDS011;18343;50.152;8.182;2023-03-04T00:27:53;105.53;;;34.65;;
31770;SDS011;18343;50.152;8.182;2023-03-04T00:30:38;85.50;;;32.65;;
31770;SDS011;18343;50.152;8.182;2023-03-04T00:33:24;98.82;;;34.25;;
31770;SDS011;18343;50.152;8.182;2023-03-04T00:36:09;89.05;;;32.83;;
31770;SDS011;18343;50.152;8.182;2023-03-04T00:38:54;85.85;;;32.25;;
31770;SDS011;18343;50.152;8.182;2023-03-04T00:41:39;88.40;;;32.17;;
31770;SDS011;18343;50.152;8.182;2023-03-04T00:44:24;93.30;;;33.88;;
31770;SDS011;18343;50.152;8.182;2023-03-04T00:47:08;95.82;;;32.25;;
31770;SDS011;18343;50.152;8.182;2023-03-04T00:49:55;101.20;;;34.13;;
31770;SDS011;18343;50.152;8.182;2023-03-04T00:52:39;99.43;;;31.58;;
31770;SDS011;18343;50.152;8.182;2023-03-04T00:55:26;99.50;;;33.90;;
31770;SDS011;18343;50.152;8.182;2023-03-04T00:58:11;104.03;;;34.13;;
31770;SDS011;18343;50.152;8.182;2023-03-04T01:00:55;109.43;;;33.70;;
31770;SDS011;18343;50.152;8.182;2023-03-04T01:03:40;101.55;;;32.65;;
31770;SDS011;18343;50.152;8.182;2023-03-04T01:06:26;99.35;;;32.67;;
31770;SDS011;18343;50.152;8.182;2023-03-04T01:09:11;92.70;;;31.50;;
31770;SDS011;18343;50.152;8.182;2023-03-04T01:11:56;106.95;;;34.45;;
31770;SDS011;18343;50.152;8.182;2023-03-04T01:14:40;111.05;;;38.70;;
31770;SDS011;18343;50.152;8.182;2023-03-04T01:17:25;99.47;;;33.67;;
31770;SDS011;18343;50.152;8.182;2023-03-04T01:20:10;97.45;;;33.17;;
31770;SDS011;18343;50.152;8.182;2023-03-04T01:22:57;102.82;;;34.33;;
31770;SDS011;18343;50.152;8.182;2023-03-04T01:25:42;90.03;;;33.35;;
31770;SDS011;18343;50.152;8.182;2023-03-04T01:28:26;94.93;;;32.17;;
31770;SDS011;18343;50.152;8.182;2023-03-04T01:31:11;92.07;;;33.40;;
31770;SDS011;18343;50.152;8.182;2023-03-04T01:33:55;98.75;;;34.88;;
31770;SDS011;18343;50.152;8.182;2023-03-04T01:36:40;92.25;;;35.58;;
31770;SDS011;18343;50.152;8.182;2023-03-04T01:39:26;101.22;;;33.78;;
31770;SDS011;18343;50.152;8.182;2023-03-04T01:42:12;96.97;;;32.63;;
31770;SDS011;18343;50.152;8.182;2023-03-04T01:45:02;92.88;;;33.40;;
31770;SDS011;18343;50.152;8.182;2023-03-04T01:47:50;98.03;;;33.90;;
31770;SDS011;18343;50.152;8.182;2023-03-04T01:50:35;92.32;;;32.95;;
31770;SDS011;18343;50.152;8.182;2023-03-04T01:53:21;93.88;;;32.25;;
31770;SDS011;18343;50.152;8.182;2023-03-04T01:56:14;91.97;;;31.25;;
31770;SDS011;18343;50.152;8.182;2023-03-04T01:59:09;85.18;;;32.28;;
31770;SDS011;18343;50.152;8.182;2023-03-04T02:01:57;93.22;;;32.60;;
31770;SDS011;18343;50.152;8.182;2023-03-04T02:04:43;92.35;;;32.17;;
31770;SDS011;18343;50.152;8.182;2023-03-04T02:07:28;94.93;;;33.65;;
31770;SDS011;18343;50.152;8.182;2023-03-04T02:10:12;87.63;;;30.70;;
31770;SDS011;18343;50.152;8.182;2023-03-04T02:12:59;92.82;;;31.77;;
31770;SDS011;18343;50.152;8.182;2023-03-04T02:15:45;100.75;;;32.30;;
31770;SDS011;18343;50.152;8.182;2023-03-04T02:18:30;92.25;;;30.45;;
31770;SDS011;18343;50.152;8.182;2023-03-04T02:21:16;90.15;;;33.67;;
31770;SDS011;18343;50.152;8.182;2023-03-04T02:24:08;87.78;;;32.53;;
31770;SDS011;18343;50.152;8.182;2023-03-04T02:27:01;83.60;;;31.45;;
31770;SDS011;18343;50.152;8.182;2023-03-04T02:29:46;86.97;;;32.40;;
31770;SDS011;18343;50.152;8.182;2023-03-04T02:32:31;87.80;;;33.55;;
31770;SDS011;18343;50.152;8.182;2023-03-04T02:35:17;83.60;;;32.03;;
31770;SDS011;18343;50.152;8.182;2023-03-04T02:38:03;86.95;;;33.03;;
31770;SDS011;18343;50.152;8.182;2023-03-04T02:40:48;80.85;;;31.73;;
31770;SDS011;18343;50.152;8.182;2023-03-04T02:43:38;85.45;;;30.55;;
31770;SDS011;18343;50.152;8.182;2023-03-04T02:46:26;80.63;;;32.22;;
31770;SDS011;18343;50.152;8.182;2023-03-04T02:49:11;82.60;;;32.90;;
31770;SDS011;18343;50.152;8.182;2023-03-04T02:51:59;84.18;;;32.97;;
31770;SDS011;18343;50.152;8.182;2023-03-04T02:54:47;78.43;;;31.25;;
31770;SDS011;18343;50.152;8.182;2023-03-04T02:57:31;77.00;;;30.88;;
31770;SDS011;18343;50.152;8.182;2023-03-04T03:00:18;76.70;;;31.83;;
31770;SDS011;18343;50.152;8.182;2023-03-04T03:03:03;81.03;;;33.33;;
31770;SDS011;18343;50.152;8.182;2023-03-04T03:05:48;79.97;;;33.65;;
31770;SDS011;18343;50.152;8.182;2023-03-04T03:08:36;88.35;;;32.85;;
31770;SDS011;18343;50.152;8.182;2023-03-04T03:11:21;89.20;;;35.03;;
31770;SDS011;18343;50.152;8.182;2023-03-04T03:14:06;81.18;;;32.83;;
31770;SDS011;18343;50.152;8.182;2023-03-04T03:16:53;82.95;;;33.97;;
31770;SDS011;18343;50.152;8.182;2023-03-04T03:19:37;80.75;;;36.45;;
31770;SDS011;18343;50.152;8.182;2023-03-04T03:22:22;82.25;;;33.55;;
31770;SDS011;18343;50.152;8.182;2023-03-04T03:25:08;85.50;;;36.60;;
31770;SDS011;18343;50.152;8.182;2023-03-04T03:27:54;92.50;;;36.63;;
31770;SDS011;18343;50.152;8.182;2023-03-04T03:30:39;78.88;;;34.83;;
31770;SDS011;18343;50.152;8.182;2023-03-04T03:33:25;91.82;;;39.13;;
31770;SDS011;18343;50.152;8.182;2023-03-04T03:36:10;89.55;;;37.83;;
31770;SDS011;18343;50.152;8.182;2023-03-04T03:38:55;99.47;;;38.63;;
31770;SDS011;18343;50.152;8.182;2023-03-04T03:41:40;95.32;;;38.38;;
31770;SDS011;18343;50.152;8.182;2023-03-04T03:44:25;94.55;;;40.45;;
31770;SDS011;18343;50.152;8.182;2023-03-04T03:47:09;99.07;;;38.80;;
31770;SDS011;18343;50.152;8.182;2023-03-04T03:49:55;97.97;;;39.17;;
31770;SDS011;18343;50.152;8.182;2023-03-04T03:52:39;97.03;;;40.67;;
31770;SDS011;18343;50.152;8.182;2023-03-04T03:55:24;94.88;;;38.90;;
31770;SDS011;18343;50.152;8.182;2023-03-04T03:58:09;92.40;;;37.53;;
31770;SDS011;18343;50.152;8.182;2023-03-04T04:00:54;100.07;;;40.10;;
31770;SDS011;18343;50.152;8.182;2023-03-04T04:03:38;99.22;;;39.25;;
31770;SDS011;18343;50.152;8.182;2023-03-04T04:06:24;94.25;;;41.20;;
31770;SDS011;18343;50.152;8.182;2023-03-04T04:09:09;87.20;;;39.22;;
31770;SDS011;18343;50.152;8.182;2023-03-04T04:11:57;87.18;;;38.22;;
31770;SDS011;18343;50.152;8.182;2023-03-04T04:14:41;89.95;;;40.40;;
31770;SDS011;18343;50.152;8.182;2023-03-04T04:17:26;90.97;;;39.60;;
31770;SDS011;18343;50.152;8.182;2023-03-04T04:20:11;89.30;;;37.65;;
31770;SDS011;18343;50.152;8.182;2023-03-04T04:22:57;97.78;;;38.95;;
31770;SDS011;18343;50.152;8.182;2023-03-04T04:25:42;89.15;;;37.85;;
31770;SDS011;18343;50.152;8.182;2023-03-04T04:28:26;88.20;;;37.28;;
31770;SDS011;18343;50.152;8.182;2023-03-04T04:31:10;88.78;;;36.40;;
31770;SDS011;18343;50.152;8.182;2023-03-04T04:33:55;86.38;;;37.75;;
31770;SDS011;18343;50.152;8.182;2023-03-04T04:36:40;81.22;;;37.33;;
31770;SDS011;18343;50.152;8.182;2023-03-04T04:39:26;86.75;;;36.42;;
31770;SDS011;18343;50.152;8.182;2023-03-04T04:42:10;88.40;;;37.22;;
31770;SDS011;18343;50.152;8.182;2023-03-04T04:44:55;88.05;;;38.00;;
31770;SDS011;18343;50.152;8.182;2023-03-04T04:47:40;98.28;;;39.25;;
31770;SDS011;18343;50.152;8.182;2023-03-04T04:50:25;84.80;;;36.03;;
31770;SDS011;18343;50.152;8.182;2023-03-04T04:53:10;80.65;;;36.45;;
31770;SDS011;18343;50.152;8.182;2023-03-04T04:55:57;80.72;;;34.92;;
31770;SDS011;18343;50.152;8.182;2023-03-04T04:58:42;81.38;;;35.03;;
31770;SDS011;18343;50.152;8.182;2023-03-04T05:01:28;82.68;;;33.78;;
31770;SDS011;18343;50.152;8.182;2023-03-04T05:04:13;83.20;;;34.47;;
31770;SDS011;18343;50.152;8.182;2023-03-04T05:06:58;83.00;;;36.08;;
31770;SDS011;18343;50.152;8.182;2023-03-04T05:09:43;80.28;;;34.25;;
31770;SDS011;18343;50.152;8.182;2023-03-04T05:12:29;83.00;;;33.88;;
31770;SDS011;18343;50.152;8.182;2023-03-04T05:15:14;84.50;;;34.08;;
31770;SDS011;18343;50.152;8.182;2023-03-04T05:17:58;80.45;;;33.60;;
31770;SDS011;18343;50.152;8.182;2023-03-04T05:20:43;77.88;;;32.25;;
31770;SDS011;18343;50.152;8.182;2023-03-04T05:23:28;67.43;;;31.40;;
31770;SDS011;18343;50.152;8.182;2023-03-04T05:26:15;72.40;;;31.55;;
31770;SDS011;18343;50.152;8.182;2023-03-04T05:29:02;74.43;;;31.20;;
31770;SDS011;18343;50.152;8.182;2023-03-04T05:31:47;74.88;;;31.05;;
31770;SDS011;18343;50.152;8.182;2023-03-04T05:34:32;73.50;;;31.17;;
31770;SDS011;18343;50.152;8.182;2023-03-04T05:37:18;73.10;;;31.17;;
31770;SDS011;18343;50.152;8.182;2023-03-04T05:40:03;79.47;;;30.83;;
31770;SDS011;18343;50.152;8.182;2023-03-04T05:42:49;73.07;;;31.15;;
31770;SDS011;18343;50.152;8.182;2023-03-04T05:45:35;72.55;;;28.95;;
31770;SDS011;18343;50.152;8.182;2023-03-04T05:48:21;69.55;;;29.20;;
31770;SDS011;18343;50.152;8.182;2023-03-04T05:51:06;75.68;;;30.77;;
31770;SDS011;18343;50.152;8.182;2023-03-04T05:53:51;71.00;;;27.83;;
31770;SDS011;18343;50.152;8.182;2023-03-04T05:56:36;67.00;;;26.55;;
31770;SDS011;18343;50.152;8.182;2023-03-04T05:59:20;72.68;;;28.45;;
31770;SDS011;18343;50.152;8.182;2023-03-04T06:02:06;69.65;;;27.55;;
31770;SDS011;18343;50.152;8.182;2023-03-04T06:04:54;69.47;;;28.02;;
31770;SDS011;18343;50.152;8.182;2023-03-04T06:07:38;69.43;;;28.45;;
31770;SDS011;18343;50.152;8.182;2023-03-04T06:10:23;70.70;;;27.90;;
31770;SDS011;18343;50.152;8.182;2023-03-04T06:13:08;62.47;;;27.08;;
31770;SDS011;18343;50.152;8.182;2023-03-04T06:15:53;67.35;;;26.45;;
31770;SDS011;18343;50.152;8.182;2023-03-04T06:18:41;74.22;;;28.17;;
31770;SDS011;18343;50.152;8.182;2023-03-04T06:21:25;67.05;;;25.50;;
31770;SDS011;18343;50.152;8.182;2023-03-04T06:24:10;61.47;;;23.85;;
31770;SDS011;18343;50.152;8.182;2023-03-04T06:26:55;58.15;;;24.27;;
31770;SDS011;18343;50.152;8.182;2023-03-04T06:29:40;51.72;;;25.20;;
31770;SDS011;18343;50.152;8.182;2023-03-04T06:32:25;53.55;;;22.67;;
31770;SDS011;18343;50.152;8.182;2023-03-04T06:35:12;64.55;;;24.48;;
31770;SDS011;18343;50.152;8.182;2023-03-04T06:37:58;67.30;;;23.55;;
31770;SDS011;18343;50.152;8.182;2023-03-04T06:40:42;61.63;;;22.65;;
31770;SDS011;18343;50.152;8.182;2023-03-04T06:43:27;56.28;;;23.58;;
31770;SDS011;18343;50.152;8.182;2023-03-04T06:46:12;61.00;;;22.80;;
31770;SDS011;18343;50.152;8.182;2023-03-04T06:48:59;55.65;;;22.08;;
31770;SDS011;18343;50.152;8.182;2023-03-04T06:51:45;63.85;;;22.63;;
31770;SDS011;18343;50.152;8.182;2023-03-04T06:54:30;55.53;;;21.75;;
31770;SDS011;18343;50.152;8.182;2023-03-04T06:57:14;57.13;;;21.60;;
31770;SDS011;18343;50.152;8.182;2023-03-04T06:59:59;53.30;;;22.25;;
31770;SDS011;18343;50.152;8.182;2023-03-04T07:02:44;51.67;;;20.30;;
31770;SDS011;18343;50.152;8.182;2023-03-04T07:05:32;51.80;;;20.38;;
31770;SDS011;18343;50.152;8.182;2023-03-04T07:08:17;55.05;;;20.27;;
31770;SDS011;18343;50.152;8.182;2023-03-04T07:11:03;61.97;;;22.13;;
31770;SDS011;18343;50.152;8.182;2023-03-04T07:13:47;60.25;;;24.65;;
31770;SDS011;18343;50.152;8.182;2023-03-04T07:16:32;53.60;;;22.17;;
31770;SDS011;18343;50.152;8.182;2023-03-04T07:19:17;50.58;;;21.23;;
31770;SDS011;18343;50.152;8.182;2023-03-04T07:22:02;52.70;;;18.85;;
31770;SDS011;18343;50.152;8.182;2023-03-04T07:24:49;61.75;;;21.27;;
31770;SDS011;18343;50.152;8.182;2023-03-04T07:27:33;62.28;;;23.65;;
31770;SDS011;18343;50.152;8.182;2023-03-04T07:30:18;65.53;;;22.65;;
31770;SDS011;18343;50.152;8.182;2023-03-04T07:33:03;58.20;;;22.48;;
31770;SDS011;18343;50.152;8.182;2023-03-04T07:35:48;61.80;;;20.80;;
31770;SDS011;18343;50.152;8.182;2023-03-04T07:38:42;55.83;;;21.08;;
31770;SDS011;18343;50.152;8.182;2023-03-04T07:41:28;53.70;;;20.77;;
31770;SDS011;18343;50.152;8.182;2023-03-04T07:44:14;49.38;;;20.77;;
31770;SDS011;18343;50.152;8.182;2023-03-04T07:46:59;57.22;;;20.88;;
31770;SDS011;18343;50.152;8.182;2023-03-04T07:49:43;56.13;;;21.35;;
31770;SDS011;18343;50.152;8.182;2023-03-04T07:52:28;54.40;;;22.45;;
31770;SDS011;18343;50.152;8.182;2023-03-04T07:55:13;50.45;;;21.02;;
31770;SDS011;18343;50.152;8.182;2023-03-04T07:58:01;56.00;;;22.52;;
31770;SDS011;18343;50.152;8.182;2023-03-04T08:00:46;53.50;;;21.88;;
31770;SDS011;18343;50.152;8.182;2023-03-04T08:03:32;54.92;;;21.95;;
31770;SDS011;18343;50.152;8.182;2023-03-04T08:06:17;57.83;;;22.80;;
31770;SDS011;18343;50.152;8.182;2023-03-04T08:09:05;54.15;;;23.13;;
31770;SDS011;18343;50.152;8.182;2023-03-04T08:11:51;57.03;;;23.98;;
31770;SDS011;18343;50.152;8.182;2023-03-04T08:14:37;58.33;;;21.88;;
31770;SDS011;18343;50.152;8.182;2023-03-04T08:17:25;55.78;;;22.60;;
31770;SDS011;18343;50.152;8.182;2023-03-04T08:20:10;58.70;;;22.58;;
31770;SDS011;18343;50.152;8.182;2023-03-04T08:22:56;63.58;;;22.40;;
31770;SDS011;18343;50.152;8.182;2023-03-04T08:25:59;53.80;;;20.77;;
31770;SDS011;18343;50.152;8.182;2023-03-04T08:28:50;57.95;;;20.63;;
31770;SDS011;18343;50.152;8.182;2023-03-04T08:31:38;54.67;;;21.77;;
31770;SDS011;18343;50.152;8.182;2023-03-04T08:34:24;50.00;;;20.77;;
31770;SDS011;18343;50.152;8.182;2023-03-04T08:37:10;56.10;;;20.35;;
31770;SDS011;18343;50.152;8.182;2023-03-04T08:39:55;51.13;;;20.63;;
31770;SDS011;18343;50.152;8.182;2023-03-04T08:42:40;57.22;;;20.52;;
31770;SDS011;18343;50.152;8.182;2023-03-04T08:45:25;50.70;;;20.42;;
31770;SDS011;18343;50.152;8.182;2023-03-04T08:48:11;48.92;;;19.70;;
31770;SDS011;18343;50.152;8.182;2023-03-04T08:50:56;50.97;;;18.00;;
31770;SDS011;18343;50.152;8.182;2023-03-04T08:53:41;50.30;;;17.98;;
31770;SDS011;18343;50.152;8.182;2023-03-04T08:56:26;50.95;;;20.60;;
31770;SDS011;18343;50.152;8.182;2023-03-04T08:59:11;47.10;;;18.08;;
31770;SDS011;18343;50.152;8.182;2023-03-04T09:01:56;48.83;;;18.15;;
31770;SDS011;18343;50.152;8.182;2023-03-04T09:04:42;50.47;;;17.38;;
31770;SDS011;18343;50.152;8.182;2023-03-04T09:07:27;56.50;;;17.50;;
31770;SDS011;18343;50.152;8.182;2023-03-04T09:10:12;48.55;;;17.17;;
31770;SDS011;18343;50.152;8.182;2023-03-04T09:12:57;49.70;;;16.75;;
31770;SDS011;18343;50.152;8.182;2023-03-04T09:15:43;45.42;;;15.65;;
31770;SDS011;18343;50.152;8.182;2023-03-04T09:18:29;50.10;;;17.63;;
31770;SDS011;18343;50.152;8.182;2023-03-04T09:21:15;47.35;;;16.33;;
31770;SDS011;18343;50.152;8.182;2023-03-04T09:24:00;46.10;;;15.55;;
31770;SDS011;18343;50.152;8.182;2023-03-04T09:26:44;47.30;;;15.25;;
31770;SDS011;18343;50.152;8.182;2023-03-04T09:29:32;52.92;;;18.25;;
31770;SDS011;18343;50.152;8.182;2023-03-04T09:32:17;48.08;;;15.43;;
31770;SDS011;18343;50.152;8.182;2023-03-04T09:35:01;41.45;;;16.88;;
31770;SDS011;18343;50.152;8.182;2023-03-04T09:37:48;45.05;;;15.98;;
31770;SDS011;18343;50.152;8.182;2023-03-04T09:40:36;38.55;;;15.13;;
31770;SDS011;18343;50.152;8.182;2023-03-04T09:43:25;40.75;;;15.07;;
31770;SDS011;18343;50.152;8.182;2023-03-04T09:46:13;42.97;;;15.52;;
31770;SDS011;18343;50.152;8.182;2023-03-04T09:49:01;40.17;;;14.98;;
31770;SDS011;18343;50.152;8.182;2023-03-04T09:51:48;43.10;;;14.60;;
31770;SDS011;18343;50.152;8.182;2023-03-04T09:54:51;40.13;;;15.07;;
31770;SDS011;18343;50.152;8.182;2023-03-04T09:57:49;41.70;;;14.88;;
31770;SDS011;18343;50.152;8.182;2023-03-04T10:00:41;42.40;;;14.05;;
31770;SDS011;18343;50.152;8.182;2023-03-04T10:03:31;41.78;;;14.45;;
31770;SDS011;18343;50.152;8.182;2023-03-04T10:06:25;42.15;;;14.95;;
31770;SDS011;18343;50.152;8.182;2023-03-04T10:09:12;32.45;;;14.27;;
31770;SDS011;18343;50.152;8.182;2023-03-04T10:12:03;32.88;;;13.40;;
31770;SDS011;18343;50.152;8.182;2023-03-04T10:14:56;28.05;;;11.70;;
31770;SDS011;18343;50.152;8.182;2023-03-04T10:17:46;42.47;;;12.30;;
31770;SDS011;18343;50.152;8.182;2023-03-04T10:20:38;40.88;;;13.00;;
31770;SDS011;18343;50.152;8.182;2023-03-04T10:23:35;26.75;;;11.00;;
31770;SDS011;18343;50.152;8.182;2023-03-04T10:26:20;36.22;;;11.82;;
31770;SDS011;18343;50.152;8.182;2023-03-04T10:29:07;27.73;;;10.43;;
31770;SDS011;18343;50.152;8.182;2023-03-04T10:31:56;27.98;;;10.68;;
31770;SDS011;18343;50.152;8.182;2023-03-04T10:34:41;30.20;;;11.27;;
31770;SDS011;18343;50.152;8.182;2023-03-04T10:37:36;35.30;;;11.18;;
31770;SDS011;18343;50.152;8.182;2023-03-04T10:40:28;30.58;;;8.82;;
31770;SDS011;18343;50.152;8.182;2023-03-04T10:43:22;34.55;;;11.10;;
31770;SDS011;18343;50.152;8.182;2023-03-04T10:46:11;36.72;;;10.95;;
31770;SDS011;18343;50.152;8.182;2023-03-04T10:48:58;27.92;;;9.25;;
31770;SDS011;18343;50.152;8.182;2023-03-04T10:52:03;20.33;;;7.35;;
31770;SDS011;18343;50.152;8.182;2023-03-04T10:55:02;21.15;;;7.15;;
31770;SDS011;18343;50.152;8.182;2023-03-04T10:57:55;20.00;;;9.00;;
31770;SDS011;18343;50.152;8.182;2023-03-04T11:00:58;24.60;;;8.90;;
31770;SDS011;18343;50.152;8.182;2023-03-04T11:03:48;25.17;;;8.75;;
31770;SDS011;18343;50.152;8.182;2023-03-04T11:06:36;26.48;;;9.25;;
31770;SDS011;18343;50.152;8.182;2023-03-04T11:09:25;21.90;;;9.30;;
31770;SDS011;18343;50.152;8.182;2023-03-04T11:12:12;22.20;;;10.10;;
31770;SDS011;18343;50.152;8.182;2023-03-04T11:14:59;27.55;;;8.73;;
31770;SDS011;18343;50.152;8.182;2023-03-04T11:17:46;25.92;;;8.40;;
31770;SDS011;18343;50.152;8.182;2023-03-04T11:20:37;25.33;;;9.07;;
31770;SDS011;18343;50.152;8.182;2023-03-04T11:23:27;17.10;;;7.47;;
31770;SDS011;18343;50.152;8.182;2023-03-04T11:26:20;15.45;;;7.70;;
31770;SDS011;18343;50.152;8.182;2023-03-04T11:29:12;17.42;;;8.23;;
31770;SDS011;18343;50.152;8.182;2023-03-04T11:32:04;20.60;;;8.88;;
31770;SDS011;18343;50.152;8.182;2023-03-04T11:34:57;22.38;;;7.97;;
31770;SDS011;18343;50.152;8.182;2023-03-04T11:37:52;22.15;;;8.52;;
31770;SDS011;18343;50.152;8.182;2023-03-04T11:40:46;26.73;;;9.30;;
31770;SDS011;18343;50.152;8.182;2023-03-04T11:43:37;22.67;;;8.20;;
31770;SDS011;18343;50.152;8.182;2023-03-04T11:46:35;21.75;;;8.38;;
31770;SDS011;18343;50.152;8.182;2023-03-04T11:49:48;18.38;;;8.15;;
31770;SDS011;18343;50.152;8.182;2023-03-04T11:56:29;21.65;;;8.98;;
31770;SDS011;18343;50.152;8.182;2023-03-04T11:59:39;30.15;;;10.35;;
31770;SDS011;18343;50.152;8.182;2023-03-04T12:02:37;24.15;;;8.27;;
31770;SDS011;18343;50.152;8.182;2023-03-04T12:05:34;18.67;;;7.40;;
31770;SDS011;18343;50.152;8.182;2023-03-04T12:08:34;19.85;;;8.02;;
31770;SDS011;18343;50.152;8.182;2023-03-04T12:11:45;24.65;;;7.72;;
31770;SDS011;18343;50.152;8.182;2023-03-04T12:14:49;22.50;;;7.63;;
31770;SDS011;18343;50.152;8.182;2023-03-04T12:18:00;21.45;;;7.72;;
31770;SDS011;18343;50.152;8.182;2023-03-04T12:21:18;22.33;;;8.10;;
31770;SDS011;18343;50.152;8.182;2023-03-04T12:27:39;15.77;;;6.63;;
31770;SDS011;18343;50.152;8.182;2023-03-04T12:30:33;20.48;;;7.95;;
31770;SDS011;18343;50.152;8.182;2023-03-04T12:33:36;11.85;;;6.60;;
31770;SDS011;18343;50.152;8.182;2023-03-04T12:36:34;21.63;;;8.35;;
31770;SDS011;18343;50.152;8.182;2023-03-04T12:39:29;21.23;;;8.52;;
31770;SDS011;18343;50.152;8.182;2023-03-04T12:42:25;15.25;;;6.10;;
31770;SDS011;18343;50.152;8.182;2023-03-04T12:45:21;15.23;;;6.45;;
31770;SDS011;18343;50.152;8.182;2023-03-04T12:48:18;7.75;;;4.07;;
31770;SDS011;18343;50.152;8.182;2023-03-04T12:51:16;13.45;;;5.60;;
31770;SDS011;18343;50.152;8.182;2023-03-04T12:54:16;13.88;;;7.22;;
31770;SDS011;18343;50.152;8.182;2023-03-04T12:57:12;20.40;;;7.68;;
31770;SDS011;18343;50.152;8.182;2023-03-04T13:00:05;15.93;;;7.90;;
31770;SDS011;18343;50.152;8.182;2023-03-04T13:03:06;23.45;;;10.32;;
31770;SDS011;18343;50.152;8.182;2023-03-04T13:06:03;22.73;;;8.70;;
31770;SDS011;18343;50.152;8.182;2023-03-04T13:08:58;18.92;;;8.02;;
31770;SDS011;18343;50.152;8.182;2023-03-04T13:11:52;26.90;;;8.55;;
31770;SDS011;18343;50.152;8.182;2023-03-04T13:18:29;20.90;;;7.88;;
31770;SDS011;18343;50.152;8.182;2023-03-04T13:21:20;20.45;;;7.75;;
31770;SDS011;18343;50.152;8.182;2023-03-04T13:27:45;21.42;;;8.00;;
31770;SDS011;18343;50.152;8.182;2023-03-04T13:30:40;16.98;;;7.43;;
31770;SDS011;18343;50.152;8.182;2023-03-04T13:33:55;25.73;;;8.70;;
31770;SDS011;18343;50.152;8.182;2023-03-04T13:36:51;23.88;;;9.57;;
31770;SDS011;18343;50.152;8.182;2023-03-04T13:39:38;22.63;;;8.00;;
31770;SDS011;18343;50.152;8.182;2023-03-04T13:42:39;18.65;;;7.38;;
31770;SDS011;18343;50.152;8.182;2023-03-04T13:45:31;25.88;;;10.18;;
31770;SDS011;18343;50.152;8.182;2023-03-04T13:48:27;25.63;;;11.23;;
31770;SDS011;18343;50.152;8.182;2023-03-04T13:51:16;16.55;;;7.40;;
31770;SDS011;18343;50.152;8.182;2023-03-04T13:54:06;24.17;;;9.38;;
31770;SDS011;18343;50.152;8.182;2023-03-04T13:57:10;25.35;;;9.63;;
31770;SDS011;18343;50.152;8.182;2023-03-04T14:00:00;20.02;;;7.32;;
31770;SDS011;18343;50.152;8.182;2023-03-04T14:02:48;24.95;;;9.05;;
31770;SDS011;18343;50.152;8.182;2023-03-04T14:05:35;23.15;;;7.10;;
31770;SDS011;18343;50.152;8.182;2023-03-04T14:08:19;20.95;;;9.25;;
31770;SDS011;18343;50.152;8.182;2023-03-04T14:11:10;26.52;;;10.18;;
31770;SDS011;18343;50.152;8.182;2023-03-04T14:13:58;29.52;;;10.20;;
31770;SDS011;18343;50.152;8.182;2023-03-04T14:16:49;33.40;;;12.40;;
31770;SDS011;18343;50.152;8.182;2023-03-04T14:19:38;26.33;;;10.07;;
31770;SDS011;18343;50.152;8.182;2023-03-04T14:22:32;25.83;;;9.27;;
31770;SDS011;18343;50.152;8.182;2023-03-04T14:25:23;26.75;;;9.98;;
31770;SDS011;18343;50.152;8.182;2023-03-04T14:28:16;24.77;;;9.13;;
31770;SDS011;18343;50.152;8.182;2023-03-04T14:31:04;22.55;;;9.25;;
31770;SDS011;18343;50.152;8.182;2023-03-04T14:33:49;28.65;;;10.32;;
31770;SDS011;18343;50.152;8.182;2023-03-04T14:36:37;25.55;;;8.88;;
31770;SDS011;18343;50.152;8.182;2023-03-04T14:39:28;19.38;;;8.52;;
31770;SDS011;18343;50.152;8.182;2023-03-04T14:42:15;19.35;;;8.93;;
31770;SDS011;18343;50.152;8.182;2023-03-04T14:45:03;21.40;;;10.23;;
31770;SDS011;18343;50.152;8.182;2023-03-04T14:47:51;26.52;;;10.93;;
31770;SDS011;18343;50.152;8.182;2023-03-04T14:50:46;23.15;;;9.63;;
31770;SDS011;18343;50.152;8.182;2023-03-04T14:53:31;22.02;;;9.70;;
31770;SDS011;18343;50.152;8.182;2023-03-04T14:56:25;23.23;;;9.27;;
31770;SDS011;18343;50.152;8.182;2023-03-04T14:59:11;19.23;;;8.85;;
31770;SDS011;18343;50.152;8.182;2023-03-04T15:05:06;25.60;;;10.05;;
31770;SDS011;18343;50.152;8.182;2023-03-04T15:08:00;20.90;;;8.77;;
31770;SDS011;18343;50.152;8.182;2023-03-04T15:10:52;25.27;;;9.38;;
31770;SDS011;18343;50.152;8.182;2023-03-04T15:13:43;23.27;;;9.95;;
31770;SDS011;18343;50.152;8.182;2023-03-04T15:16:51;21.00;;;9.43;;
31770;SDS011;18343;50.152;8.182;2023-03-04T15:19:39;21.00;;;8.43;;
31770;SDS011;18343;50.152;8.182;2023-03-04T15:22:24;23.38;;;10.65;;
31770;SDS011;18343;50.152;8.182;2023-03-04T15:25:11;22.13;;;10.77;;
31770;SDS011;18343;50.152;8.182;2023-03-04T15:27:56;20.67;;;9.95;;
31770;SDS011;18343;50.152;8.182;2023-03-04T15:30:43;18.30;;;9.43;;
31770;SDS011;18343;50.152;8.182;2023-03-04T15:33:28;22.70;;;10.52;;
31770;SDS011;18343;50.152;8.182;2023-03-04T15:36:13;31.98;;;15.07;;
31770;SDS011;18343;50.152;8.182;2023-03-04T15:39:01;23.85;;;13.30;;
31770;SDS011;18343;50.152;8.182;2023-03-04T15:41:46;25.77;;;13.35;;
31770;SDS011;18343;50.152;8.182;2023-03-04T15:44:30;31.17;;;14.73;;
31770;SDS011;18343;50.152;8.182;2023-03-04T15:47:16;24.20;;;11.63;;
31770;SDS011;18343;50.152;8.182;2023-03-04T15:50:01;18.23;;;9.73;;
31770;SDS011;18343;50.152;8.182;2023-03-04T15:52:46;23.48;;;9.45;;
31770;SDS011;18343;50.152;8.182;2023-03-04T15:55:32;15.35;;;7.28;;
31770;SDS011;18343;50.152;8.182;2023-03-04T15:58:17;20.02;;;8.30;;
31770;SDS011;18343;50.152;8.182;2023-03-04T16:01:02;22.38;;;10.60;;
31770;SDS011;18343;50.152;8.182;2023-03-04T16:03:49;18.95;;;10.27;;
31770;SDS011;18343;50.152;8.182;2023-03-04T16:06:35;17.52;;;9.00;;
31770;SDS011;18343;50.152;8.182;2023-03-04T16:09:25;15.30;;;8.32;;
31770;SDS011;18343;50.152;8.182;2023-03-04T16:12:12;21.35;;;9.88;;
31770;SDS011;18343;50.152;8.182;2023-03-04T16:15:00;14.30;;;8.77;;
31770;SDS011;18343;50.152;8.182;2023-03-04T16:17:45;20.08;;;8.52;;
31770;SDS011;18343;50.152;8.182;2023-03-04T16:20:33;16.75;;;8.80;;
31770;SDS011;18343;50.152;8.182;2023-03-04T16:23:20;36.25;;;12.07;;
31770;SDS011;18343;50.152;8.182;2023-03-04T16:26:09;18.15;;;8.90;;
31770;SDS011;18343;50.152;8.182;2023-03-04T16:28:56;21.08;;;9.70;;
31770;SDS011;18343;50.152;8.182;2023-03-04T16:31:41;17.52;;;8.90;;
31770;SDS011;18343;50.152;8.182;2023-03-04T16:34:28;20.55;;;9.50;;
31770;SDS011;18343;50.152;8.182;2023-03-04T16:37:17;15.95;;;8.70;;
31770;SDS011;18343;50.152;8.182;2023-03-04T16:40:03;17.00;;;9.73;;
31770;SDS011;18343;50.152;8.182;2023-03-04T16:42:51;17.40;;;9.30;;